M I D A S
Marine Information and Data Acquisition System
Tripno 734 of the Zeeleeuw from 2004-06-11 06:30:01 to 2004-06-11 14:35:07
Back to CruiseResearch ActivitiesStationsMapUnderway DataData graphs

EquipmentUnitsComment
TimeDGPSUTC
LatitudeDGPSDM.mWGS84
LongitudeDGPSDM.mWGS84
HeadingGyrodeg 
SOGDGPSknotsSpeed over ground
COGDGPSdegCourse over ground
DepthEcho soundermeters200 kHz
Missing or incorrect values are displayed as -999
Navigation data collected by the RV Zeeleeuw from 2004-06-11 06:30:01 to 2004-06-11 14:35:07
Time Latitude Longitude Heading SOG COG Depth
2004-06-11 06:31:04 51°14.187 2°55.373 332.6 10.4 327 14
2004-06-11 06:32:04 51°14.321 2°55.157 316.5 12.4 311 13.7
2004-06-11 06:33:03 51°14.454 2°54.909 303.7 11.9 302 13
2004-06-11 06:34:04 51°14.506 2°54.615 280.2 11.3 280 13.5
2004-06-11 06:35:03 51°14.529 2°54.32 276.5 11.5 275 13.6
2004-06-11 06:36:03 51°14.544 2°54.017 277 11.5 277 13.1
2004-06-11 06:37:04 51°14.556 2°53.714 270 11.1 269 12.6
2004-06-11 06:38:03 51°14.555 2°53.423 270.6 11.2 270 11.4
2004-06-11 06:39:03 51°14.625 2°53.264 328.4 5.1 339 11.6
2004-06-11 06:40:04 51°14.688 2°53.265 0.4 3.3 15 12.1
2004-06-11 06:41:04 51°14.735 2°53.291 350.5 2.8 21 12.1
2004-06-11 06:42:04 51°14.771 2°53.315 341.4 2.2 24 13.5
2004-06-11 06:43:03 51°14.8 2°53.343 339.6 2 36 12.9
2004-06-11 06:44:03 51°14.826 2°53.374 339.7 1.9 38 13.4
2004-06-11 06:45:03 51°14.85 2°53.405 336 1.9 40 13.4
2004-06-11 06:46:03 51°14.873 2°53.439 336.2 1.9 43 13
2004-06-11 06:47:03 51°14.895 2°53.474 335.3 1.8 43 12.7
2004-06-11 06:48:03 51°14.934 2°53.473 306.1 4.2 316 12.6
2004-06-11 06:49:04 51°14.931 2°53.295 258 8.9 255 12.8
2004-06-11 06:50:03 51°14.912 2°53.042 268.4 10.3 265 12.8
2004-06-11 06:51:03 51°14.898 2°52.77 267.9 10.2 265 12.6
2004-06-11 06:52:03 51°14.883 2°52.499 267.2 10.3 265 12.6
2004-06-11 06:53:03 51°14.868 2°52.226 267 10.3 265 12.8
2004-06-11 06:54:04 51°14.854 2°51.947 267.5 10.4 265 13
2004-06-11 06:55:03 51°14.841 2°51.677 267.8 10.4 265 13.3
2004-06-11 06:56:04 51°14.809 2°51.516 238.2 3.9 231 13.5
2004-06-11 06:57:04 51°14.772 2°51.472 229.3 2.3 206 13.4
2004-06-11 06:58:04 51°14.746 2°51.451 233.7 1.6 207 13.3
2004-06-11 06:59:03 51°14.727 2°51.41 253.8 2.4 253 13.2
2004-06-11 07:00:03 51°14.719 2°51.341 253.4 2.8 253 13.4
2004-06-11 07:01:04 51°14.696 2°51.275 239.9 2.7 231 13.4
2004-06-11 07:02:03 51°14.672 2°51.225 244.6 2.2 237 13.3
2004-06-11 07:03:03 51°14.655 2°51.172 251.6 2.2 251 13.4
2004-06-11 07:04:03 51°14.646 2°51.112 256.7 2.3 258 13.3
2004-06-11 07:05:03 51°14.637 2°51.051 254.1 2.4 255 13.3
2004-06-11 07:06:03 51°14.626 2°50.996 253 2.2 253 13.4
2004-06-11 07:07:03 51°14.615 2°50.939 253.7 2.1 254 13.4
2004-06-11 07:08:03 51°14.606 2°50.885 254.6 2.1 254 13.5
2004-06-11 07:09:03 51°14.595 2°50.833 249.7 2 248 13.5
2004-06-11 07:10:05 51°14.58 2°50.782 249 2.1 248 13.5
2004-06-11 07:11:03 51°14.57 2°50.731 254.4 2.1 253 13.5
2004-06-11 07:12:03 51°14.562 2°50.676 254.2 2.2 257 13.5
2004-06-11 07:13:03 51°14.554 2°50.623 252.7 2 252 13.5
2004-06-11 07:14:03 51°14.543 2°50.571 251.4 2.1 251 13.5
2004-06-11 07:15:03 51°14.532 2°50.519 250.6 2 249 13.6
2004-06-11 07:16:03 51°14.519 2°50.467 251.1 2.2 248 13.5
2004-06-11 07:17:03 51°14.503 2°50.414 247.2 2.3 241 13.5
2004-06-11 07:18:05 51°14.485 2°50.361 245.4 2.2 239 13.5
2004-06-11 07:19:05 51°14.468 2°50.312 246.5 2.1 242 13.5
2004-06-11 07:20:03 51°14.451 2°50.263 245.1 2.2 239 13.5
2004-06-11 07:21:03 51°14.433 2°50.211 246.2 2.2 241 13.4
2004-06-11 07:22:03 51°14.415 2°50.161 244.8 2.2 239 13.4
2004-06-11 07:23:03 51°14.395 2°50.111 244.2 2.3 239 13.3
2004-06-11 07:24:03 51°14.378 2°50.058 247.4 2.3 246 13.5
2004-06-11 07:25:03 51°14.361 2°50.005 243.2 2.2 238 13.3
2004-06-11 07:26:03 51°14.342 2°49.955 244.2 2.2 240 13.4
2004-06-11 07:27:03 51°14.324 2°49.906 242.8 2.1 239 13.5
2004-06-11 07:28:03 51°14.305 2°49.86 242.4 2.1 234 13.4
2004-06-11 07:29:04 51°14.286 2°49.811 243.8 2.2 240 13.5
2004-06-11 07:30:03 51°14.267 2°49.764 241.6 2.1 234 13.5
2004-06-11 07:31:03 51°14.247 2°49.722 242.7 2.1 236 13.6
2004-06-11 07:32:03 51°14.23 2°49.674 246.5 2.1 246 13.4
2004-06-11 07:33:05 51°14.218 2°49.621 249.9 2.1 253 13.4
2004-06-11 07:34:04 51°14.207 2°49.567 250.3 2.2 252 13.4
2004-06-11 07:35:03 51°14.201 2°49.51 262.3 2.3 271 13.5
2004-06-11 07:36:03 51°14.21 2°49.454 277.6 1.9 301 13.6
2004-06-11 07:37:02 51°14.232 2°49.431 293.3 1.5 342 13.9
2004-06-11 07:38:03 51°14.261 2°49.418 312.2 3.1 337 14
2004-06-11 07:39:03 51°14.34 2°49.476 60.6 6.2 62 14.3
2004-06-11 07:40:05 51°14.372 2°49.607 82.4 4.5 74 14.3
2004-06-11 07:41:05 51°14.39 2°49.711 88.3 3.8 75 14.2
2004-06-11 07:42:03 51°14.403 2°49.802 92.6 3.6 78 14.1
2004-06-11 07:43:03 51°14.417 2°49.89 84.9 3.3 73 14
2004-06-11 07:44:05 51°14.437 2°49.973 72.8 3.2 67 13.9
2004-06-11 07:45:03 51°14.459 2°50.05 69.4 3.3 64 13.8
2004-06-11 07:46:05 51°14.483 2°50.133 70.2 3.2 67 13.8
2004-06-11 07:47:03 51°14.506 2°50.21 69 3.4 65 13.8
2004-06-11 07:48:03 51°14.53 2°50.289 67.4 3.3 64 13.7
2004-06-11 07:49:03 51°14.555 2°50.367 67.8 3.3 63 13.7
2004-06-11 07:50:03 51°14.579 2°50.446 75.4 3.3 67 14
2004-06-11 07:51:03 51°14.6 2°50.526 75.8 3.3 67 14
2004-06-11 07:52:05 51°14.623 2°50.611 76.7 3.3 66 13.9
2004-06-11 07:53:03 51°14.644 2°50.69 82 3.3 69 13.8
2004-06-11 07:54:02 51°14.661 2°50.771 84.5 3.2 72 13.8
2004-06-11 07:55:03 51°14.681 2°50.853 77.6 3.2 67 13.8
2004-06-11 07:56:03 51°14.706 2°50.928 57.8 3.2 55 13.7
2004-06-11 07:57:02 51°14.737 2°50.988 35.6 2.8 49 13.9
2004-06-11 07:58:04 51°14.769 2°51.039 15.7 2.5 41 13.9
2004-06-11 07:59:03 51°14.798 2°51.078 358.9 2.1 37 14
2004-06-11 08:00:03 51°14.824 2°51.108 343.5 1.7 37 13.9
2004-06-11 08:01:03 51°14.846 2°51.136 338.7 1.7 40 14
2004-06-11 08:02:04 51°14.868 2°51.166 337.3 1.7 40 14.1
2004-06-11 08:03:04 51°14.889 2°51.197 339.1 1.8 44 14
2004-06-11 08:04:03 51°14.909 2°51.227 335.3 1.7 40 13.9
2004-06-11 08:05:03 51°14.934 2°51.25 329.1 1.8 21 14
2004-06-11 08:06:05 51°14.963 2°51.263 323.7 1.8 12 14.3
2004-06-11 08:07:03 51°14.993 2°51.273 324.3 2 11 14.4
2004-06-11 08:08:04 51°15.027 2°51.284 322.1 2 10 14.6
2004-06-11 08:09:05 51°15.061 2°51.292 317.9 2 7 14.6
2004-06-11 08:10:04 51°15.092 2°51.296 309.7 1.7 4 14.5
2004-06-11 08:11:05 51°15.12 2°51.297 304.8 1.7 2 14.7
2004-06-11 08:12:04 51°15.147 2°51.3 305.4 1.6 4 14.7
2004-06-11 08:13:03 51°15.173 2°51.302 300.4 1.5   14.7
2004-06-11 08:14:03 51°15.201 2°51.234 275.1 5.7 275 14.8
2004-06-11 08:15:03 51°15.131 2°51.015 241.2 11.9 237 14.7
2004-06-11 08:16:05 51°15.009 2°50.737 239 12.5 234 14.6
2004-06-11 08:17:05 51°14.887 2°50.467 238.9 12.6 235 14.5
2004-06-11 08:18:03 51°14.769 2°50.204 239.1 12.6 234 14.4
2004-06-11 08:19:03 51°14.664 2°49.915 250.4 12.7 246 14.3
2004-06-11 08:20:04 51°14.589 2°49.594 255.3 12.8 252 14.3
2004-06-11 08:21:05 51°14.52 2°49.267 254.4 12.7 251 14.2
2004-06-11 08:22:04 51°14.457 2°48.95 255.5 12.7 252 14.2
2004-06-11 08:23:05 51°14.393 2°48.623 256.2 12.7 253 14.1
2004-06-11 08:24:04 51°14.328 2°48.308 255.3 12.7 251 13.9
2004-06-11 08:25:04 51°14.265 2°47.988 256.6 12.8 252 13.6
2004-06-11 08:26:04 51°14.202 2°47.664 255.9 12.7 252 13.5
2004-06-11 08:27:06 51°14.137 2°47.331 256.2 12.7 252 12.7
2004-06-11 08:28:04 51°14.076 2°47.021 256.3 12.6 252 12
2004-06-11 08:29:03 51°14.015 2°46.707 256.3 12.7 253 11.3
2004-06-11 08:30:04 51°13.951 2°46.382 256 12.6 252 11.2
2004-06-11 08:31:04 51°13.89 2°46.063 257.1 12.5 253 11.3
2004-06-11 08:32:04 51°13.79 2°45.774 237.7 12.5 233 11.1
2004-06-11 08:33:04 51°13.661 2°45.514 236.5 12.5 231 10.6
2004-06-11 08:34:06 51°13.523 2°45.253 230.3 12.4 225 10.6
2004-06-11 08:35:04 51°13.364 2°45.056 221.1 12.6 216 12.4
2004-06-11 08:36:04 51°13.203 2°44.847 227 12.5 222 14
2004-06-11 08:37:04 51°13.057 2°44.613 234 12.5 231 14.3
2004-06-11 08:38:04 51°12.945 2°44.335 243 12.4 238 14.5
2004-06-11 08:39:03 51°12.835 2°44.058 242.1 12.5 238 15.1
2004-06-11 08:40:05 51°12.719 2°43.765 241.5 12.7 237 15.3
2004-06-11 08:41:03 51°12.61 2°43.493 241 12.5 237 15.1
2004-06-11 08:42:04 51°12.497 2°43.211 241.5 12.4 237 15.1
2004-06-11 08:43:04 51°12.387 2°42.938 240.3 12.3 237 15.5
2004-06-11 08:44:04 51°12.277 2°42.661 241.8 12.4 238 15.9
2004-06-11 08:45:04 51°12.167 2°42.381 241.6 12.5 238 16
2004-06-11 08:46:04 51°12.056 2°42.101 241 12.5 238 16.3
2004-06-11 08:47:04 51°11.944 2°41.822 241.3 12.6 237 16.7
2004-06-11 08:48:04 51°11.833 2°41.543 241.7 12.4 238 17
2004-06-11 08:49:06 51°11.719 2°41.254 240.3 12.5 237 17.2
2004-06-11 08:50:06 51°11.608 2°40.972 240.9 12.5 237 17.4
2004-06-11 08:51:04 51°11.5 2°40.703 241 12.5 238 17.6
2004-06-11 08:52:02 51°11.392 2°40.432 241.5 12.5 237 17.8
2004-06-11 08:53:04 51°11.276 2°40.145 241.7 12.5 238 18.1
2004-06-11 08:54:04 51°11.155 2°39.876 235.7 12.5 231 18.5
2004-06-11 08:55:04 51°11.033 2°39.609 238.3 12.5 235 18.9
2004-06-11 08:56:04 51°10.912 2°39.341 238.2 12.5 235 19.1
2004-06-11 08:57:05 51°10.787 2°39.068 235.8 12.6 232 19.2
2004-06-11 08:58:05 51°10.662 2°38.8 237.5 12.7 234 19.5
2004-06-11 08:59:04 51°10.539 2°38.532 237.3 12.7 234 19.3
2004-06-11 09:00:06 51°10.409 2°38.252 235.6 12.7 232 19.2
2004-06-11 09:01:04 51°10.284 2°37.989 235.8 12.9 232 18.9
2004-06-11 09:02:05 51°10.152 2°37.712 235.7 13 232 19.1
2004-06-11 09:03:04 51°10.024 2°37.442 236.6 12.9 233 19.1
2004-06-11 09:04:04 51°9.894 2°37.17 236.5 12.9 233 19
2004-06-11 09:05:06 51°9.762 2°36.886 236.8 12.9 234 18.4
2004-06-11 09:06:06 51°9.637 2°36.61 238 12.9 235 18.4
2004-06-11 09:07:06 51°9.51 2°36.333 237.1 13 234 18.2
2004-06-11 09:08:04 51°9.389 2°36.062 238.2 13 235 17.9
2004-06-11 09:09:04 51°9.265 2°35.78 240.3 12.9 238 17.6
2004-06-11 09:10:04 51°9.149 2°35.492 238.4 12.9 236 17.9
2004-06-11 09:11:04 51°9.028 2°35.207 239 13 237 18.2
2004-06-11 09:12:04 51°8.903 2°34.927 236 13 234 17.9
2004-06-11 09:13:04 51°8.848 2°34.722 271.9 5.2 274 18.6
2004-06-11 09:14:04 51°8.877 2°34.667 325.8 1.8 352 18.2
2004-06-11 09:15:04 51°8.906 2°34.676 351.4 1.9 17 18.3
2004-06-11 09:16:04 51°8.935 2°34.692 346.7 1.8 21 18.5
2004-06-11 09:17:03 51°8.961 2°34.706 340.7 1.6 20 18.1
2004-06-11 09:18:06 51°8.984 2°34.719 337.8 1.5 24 18.4
2004-06-11 09:19:04 51°9.005 2°34.732 333.3 1.3 21 18
2004-06-11 09:20:04 51°9.025 2°34.746 331.4 1.3 25 18
2004-06-11 09:21:04 51°9.043 2°34.761 332.8 1.3 26 18.3
2004-06-11 09:22:04 51°9.06 2°34.774 328.8 1.2 25 18.3
2004-06-11 09:23:05 51°9.078 2°34.787 326.6 1.1 25 18.8
2004-06-11 09:24:03 51°9.094 2°34.8 326.7 1.1 26 18
2004-06-11 09:25:05 51°9.112 2°34.814 327.5 1.1 29 18.8
2004-06-11 09:26:05 51°9.129 2°34.83 329.3 1.2 34 18
2004-06-11 09:27:05 51°9.144 2°34.845 329.7 1.1 31 18.6
2004-06-11 09:28:05 51°9.159 2°34.859 332.4 1.1 30 18.3
2004-06-11 09:29:04 51°9.175 2°34.873 338.2 1.2 32 18.2
2004-06-11 09:30:03 51°9.191 2°34.888 341.2 1.2 27 18.9
2004-06-11 09:31:03 51°9.208 2°34.903 341.7 1.2 32 18.7
2004-06-11 09:32:05 51°9.225 2°34.92 342.3 1.1 29 18.4
2004-06-11 09:33:04 51°9.241 2°34.936 340.9 1.2 32 18
2004-06-11 09:34:05 51°9.259 2°34.952 340.9 1.2 30 18.5
2004-06-11 09:35:03 51°9.278 2°34.965 338.6 1.8 4 18.1
2004-06-11 09:36:02 51°9.319 2°34.912 286.6 4.3 288 18.2
2004-06-11 09:37:05 51°9.283 2°34.812 212.5 5.1 204 18.6
2004-06-11 09:38:05 51°9.186 2°34.772 203.5 6.5 198 18.7
2004-06-11 09:39:05 51°9.082 2°34.71 202.5 6.8 195 18
2004-06-11 09:40:05 51°8.97 2°34.734 163.5 7.1 154 18
2004-06-11 09:41:06 51°8.871 2°34.837 171.9 6.3 169 18.1
2004-06-11 09:42:04 51°8.782 2°34.783 213.7 6.5 206 18
2004-06-11 09:43:05 51°8.695 2°34.683 242.9 5.7 239 17.7
2004-06-11 09:44:04 51°8.682 2°34.597 275.1 1.9 277 18.1
2004-06-11 09:45:05 51°8.693 2°34.578 315.1 0.9 346 18.3
2004-06-11 09:46:04 51°8.709 2°34.579 324.6 1 6 18.3
2004-06-11 09:47:05 51°8.724 2°34.582 320.6 0.9 10 18.2
2004-06-11 09:48:03 51°8.737 2°34.587 315.4 0.8 15 18.1
2004-06-11 09:49:04 51°8.748 2°34.593 312.5 0.7 24 18
2004-06-11 09:50:05 51°8.764 2°34.583 291.6 1.7 302 18.3
2004-06-11 09:51:03 51°8.757 2°34.535 230 2.4 222 18.1
2004-06-11 09:52:06 51°8.723 2°34.508 221.8 2.2 208 18.1
2004-06-11 09:53:05 51°8.694 2°34.469 237.4 2.4 227 18
2004-06-11 09:54:03 51°8.672 2°34.416 246.7 2.5 239 18.1
2004-06-11 09:55:05 51°8.646 2°34.358 238.6 2.7 231 18.1
2004-06-11 09:56:03 51°8.619 2°34.304 239.1 2.7 232 18.1
2004-06-11 09:57:05 51°8.591 2°34.245 241.9 2.7 236 18.1
2004-06-11 09:58:05 51°8.566 2°34.186 241 2.6 235 18.1
2004-06-11 09:59:05 51°8.54 2°34.132 238.4 2.5 230 18.1
2004-06-11 10:00:06 51°8.514 2°34.081 238.7 2.4 230 17.9
2004-06-11 10:01:03 51°8.49 2°34.035 240.6 2.4 234 17.9
2004-06-11 10:02:04 51°8.466 2°33.985 241.1 2.3 233 18
2004-06-11 10:03:06 51°8.444 2°33.931 245.9 2.3 238 17.8
2004-06-11 10:04:04 51°8.426 2°33.877 251.1 2.4 245 17.8
2004-06-11 10:05:04 51°8.41 2°33.818 253.7 2.5 248 17.8
2004-06-11 10:06:06 51°8.394 2°33.754 252.5 2.5 248 17.8
2004-06-11 10:07:04 51°8.378 2°33.696 249.6 2.5 245 17.8
2004-06-11 10:08:04 51°8.359 2°33.636 248.6 2.5 243 17.8
2004-06-11 10:09:06 51°8.339 2°33.574 247.5 2.6 243 17.7
2004-06-11 10:10:05 51°8.317 2°33.518 242.8 2.5 236 17.7
2004-06-11 10:11:03 51°8.293 2°33.464 241.6 2.6 235 17.6
2004-06-11 10:12:05 51°8.267 2°33.406 242.6 2.6 237 17.6
2004-06-11 10:13:04 51°8.243 2°33.351 242.1 2.5 234 17.4
2004-06-11 10:14:04 51°8.22 2°33.3 242.5 2.3 235 17.3
2004-06-11 10:15:06 51°8.198 2°33.247 244.6 2.3 238 17.3
2004-06-11 10:16:04 51°8.179 2°33.198 246 2.2 238 17.3
2004-06-11 10:17:06 51°8.158 2°33.145 245.6 2.2 241 17.3
2004-06-11 10:18:04 51°8.14 2°33.096 246 2.2 239 17.1
2004-06-11 10:19:06 51°8.12 2°33.042 245.7 2.3 240 17.1
2004-06-11 10:20:06 51°8.1 2°32.99 246.8 2.3 241 16.9
2004-06-11 10:21:04 51°8.083 2°32.938 247.5 2.3 243 17
2004-06-11 10:22:06 51°8.064 2°32.88 247.5 2.3 243 16.9
2004-06-11 10:23:05 51°8.047 2°32.825 247.9 2.4 244 16.9
2004-06-11 10:24:05 51°8.029 2°32.769 246.8 2.4 243 16.9
2004-06-11 10:25:05 51°8.01 2°32.714 246.5 2.4 242 16.5
2004-06-11 10:26:05 51°7.99 2°32.659 245.1 2.4 241 16.4
2004-06-11 10:27:04 51°7.971 2°32.605 246 2.4 241 16.4
2004-06-11 10:28:05 51°7.952 2°32.547 247.2 2.4 243 16.7
2004-06-11 10:29:05 51°7.933 2°32.491 246.3 2.4 241 16.8
2004-06-11 10:30:05 51°7.913 2°32.434 244.9 2.5 239 16.6
2004-06-11 10:31:06 51°7.892 2°32.376 245.3 2.5 238 16.4
2004-06-11 10:32:06 51°7.872 2°32.317 247.2 2.7 244 16.3
2004-06-11 10:33:06 51°7.852 2°32.248 249.5 2.9 246 16.1
2004-06-11 10:34:04 51°7.832 2°32.178 249.2 3.1 246 15.8
2004-06-11 10:35:06 51°7.81 2°32.1 251.4 3.1 248 15.6
2004-06-11 10:36:06 51°7.789 2°32.025 244.5 3.1 240 15.4
2004-06-11 10:37:04 51°7.758 2°31.976 218.7 2.3 212 14.8
2004-06-11 10:38:03 51°7.724 2°31.96 187.9 2.5 183 14.6
2004-06-11 10:39:03 51°7.687 2°31.974 156.9 3.2 151 14
2004-06-11 10:40:05 51°7.675 2°32.07 68.2 3.7 65 13.8
2004-06-11 10:41:05 51°7.705 2°32.135 47.9 2.6 47 14
2004-06-11 10:42:03 51°7.733 2°32.172 35.8 2.2 36 14.4
2004-06-11 10:43:03 51°7.766 2°32.209 38.2 2.7 37 14.8
2004-06-11 10:44:05 51°7.804 2°32.281 65.6 3.5 63 15
2004-06-11 10:45:06 51°7.824 2°32.364 71.7 3.3 70 15.2
2004-06-11 10:46:06 51°7.843 2°32.444 71.6 3.2 70 15.3
2004-06-11 10:47:06 51°7.857 2°32.523 77.8 3 76 15.1
2004-06-11 10:48:06 51°7.866 2°32.598 81.7 2.8 81 14.9
2004-06-11 10:49:05 51°7.874 2°32.67 82.8 2.8 81 14.4
2004-06-11 10:50:06 51°7.882 2°32.744 82.3 2.7 80 14
2004-06-11 10:51:06 51°7.892 2°32.816 76.9 2.7 74 13.4
2004-06-11 10:52:04 51°7.907 2°32.879 67.7 2.7 65 13.3
2004-06-11 10:53:06 51°7.929 2°32.943 61.6 2.7 59 13.2
2004-06-11 10:54:06 51°7.955 2°33.003 57.2 2.7 54 13.6
2004-06-11 10:55:04 51°7.982 2°33.059 55 2.8 52 13.9
2004-06-11 10:56:06 51°8.011 2°33.117 56.5 2.7 52 14
2004-06-11 10:57:04 51°8.036 2°33.173 60 2.7 57 14.1
2004-06-11 10:58:04 51°8.059 2°33.233 65 2.7 62 14.2
2004-06-11 10:59:06 51°8.079 2°33.298 70.9 2.7 68 14.3
2004-06-11 11:00:06 51°8.094 2°33.364 73.9 2.7 71 14.1
2004-06-11 11:01:06 51°8.109 2°33.43 71.1 2.6 69 13.7
2004-06-11 11:02:06 51°8.128 2°33.493 67.4 2.6 64 13.6
2004-06-11 11:03:06 51°8.148 2°33.554 64.4 2.6 60 13.5
2004-06-11 11:04:06 51°8.171 2°33.612 60.7 2.6 58 13.5
2004-06-11 11:05:06 51°8.195 2°33.669 59.2 2.6 56 13.8
2004-06-11 11:06:06 51°8.219 2°33.725 59.8 2.6 57 13.9
2004-06-11 11:07:06 51°8.242 2°33.781 60.5 2.5 58 14.1
2004-06-11 11:08:06 51°8.265 2°33.837 61 2.5 58 14.2
2004-06-11 11:09:06 51°8.286 2°33.894 63.8 2.5 61 14.2
2004-06-11 11:10:04 51°8.306 2°33.95 65.2 2.5 62 14.3
2004-06-11 11:11:06 51°8.328 2°34.01 65.3 2.5 63 14.5
2004-06-11 11:12:04 51°8.347 2°34.065 63.5 2.5 60 14.4
2004-06-11 11:13:06 51°8.369 2°34.123 60.5 2.5 58 14.5
2004-06-11 11:14:04 51°8.392 2°34.173 55.1 2.4 52 14.7
2004-06-11 11:15:05 51°8.419 2°34.224 52.6 2.7 48 15.1
2004-06-11 11:16:06 51°8.456 2°34.284 49.9 3.2 45 15.6
2004-06-11 11:17:04 51°8.494 2°34.341 50.1 3.2 45 16
2004-06-11 11:18:06 51°8.534 2°34.404 48.7 3.3 44 16.2
2004-06-11 11:19:06 51°8.574 2°34.462 44.3 3.2 38 16.4
2004-06-11 11:20:06 51°8.61 2°34.497 30.1 2.2 23 16.6
2004-06-11 11:21:06 51°8.639 2°34.51 19.8 1.6 12 16.9
2004-06-11 11:22:06 51°8.666 2°34.512 8.8 1.6 359 17.2
2004-06-11 11:23:06 51°8.693 2°34.505 359.2 1.6 349 17.1
2004-06-11 11:24:06 51°8.719 2°34.492 352.3 1.6 339 17.1
2004-06-11 11:25:06 51°8.743 2°34.474 346.5 1.6 333 17
2004-06-11 11:26:06 51°8.766 2°34.451 340.4 1.6 326 16.6
2004-06-11 11:27:06 51°8.788 2°34.425 334.7 1.7 322 17
2004-06-11 11:28:04 51°8.806 2°34.395 329 1.6 313 16.4
2004-06-11 11:29:06 51°8.825 2°34.361 322.9 1.6 308 16.2
2004-06-11 11:30:06 51°8.84 2°34.324 317.5 1.7 303 16
2004-06-11 11:31:06 51°8.854 2°34.285 311.1 1.7 297 16.5
2004-06-11 11:32:06 51°8.866 2°34.241 304.6 1.8 290 16.1
2004-06-11 11:33:06 51°8.874 2°34.175 278.7 3.8 271 16.2
2004-06-11 11:34:06 51°8.826 2°34.079 206.8 5.5 200 16.2
2004-06-11 11:35:06 51°8.744 2°34.152 115.8 6.4 117 16.6
2004-06-11 11:36:06 51°8.741 2°34.377 88.2 10.1 85 16.6
2004-06-11 11:37:04 51°8.758 2°34.658 87.4 11.9 84 16.5
2004-06-11 11:38:04 51°8.779 2°34.972 88.2 11.9 86 16
2004-06-11 11:39:06 51°8.797 2°35.299 87 12 84 14.3
2004-06-11 11:40:06 51°8.84 2°35.484 56.6 5.2 52 14
2004-06-11 11:41:06 51°8.884 2°35.564 55.3 3.5 51 14.3
2004-06-11 11:42:06 51°8.907 2°35.629 71.2 2.7 71 14.3
2004-06-11 11:43:06 51°8.917 2°35.698 77.5 2.7 78 14
2004-06-11 11:44:04 51°8.929 2°35.765 73.3 2.7 73 13.9
2004-06-11 11:45:06 51°8.943 2°35.832 72.6 2.6 72 13.7
2004-06-11 11:46:04 51°8.955 2°35.895 73.7 2.5 73 13.4
2004-06-11 11:47:06 51°8.967 2°35.961 73.7 2.6 74 13.3
2004-06-11 11:48:06 51°8.981 2°36.026 72.6 2.6 71 13
2004-06-11 11:49:06 51°8.995 2°36.09 71.8 2.6 69 12.9
2004-06-11 11:50:04 51°9.01 2°36.151 70.4 2.6 67 12.8
2004-06-11 11:51:06 51°9.03 2°36.213 65.7 2.5 59 12.8
2004-06-11 11:52:06 51°9.052 2°36.27 62.4 2.6 56 12.8
2004-06-11 11:53:06 51°9.075 2°36.327 64.5 2.5 58 12.9
2004-06-11 11:54:06 51°9.096 2°36.385 68.1 2.5 63 12.9
2004-06-11 11:55:03 51°9.113 2°36.442 70.1 2.6 65 12.8
2004-06-11 11:56:06 51°9.131 2°36.506 71.2 2.5 66 12.7
2004-06-11 11:57:04 51°9.148 2°36.565 71.4 2.5 66 12.6
2004-06-11 11:58:04 51°9.166 2°36.625 69.2 2.5 63 12.7
2004-06-11 11:59:06 51°9.186 2°36.685 67.4 2.5 62 12.6
2004-06-11 12:00:06 51°9.207 2°36.743 67.2 2.5 61 12.6
2004-06-11 12:01:05 51°9.227 2°36.799 67.5 2.5 62 12.7
2004-06-11 12:02:06 51°9.249 2°36.858 65.3 2.5 59 12.7
2004-06-11 12:03:02 51°9.269 2°36.912 64.5 2.5 58 12.8
2004-06-11 12:04:06 51°9.292 2°36.973 65.7 2.6 58 12.8
2004-06-11 12:05:04 51°9.312 2°37.03 67 2.5 61 12.8
2004-06-11 12:06:03 51°9.332 2°37.088 66.6 2.5 61 12.8
2004-06-11 12:07:04 51°9.353 2°37.147 66.7 2.5 61 12.8
2004-06-11 12:08:06 51°9.373 2°37.207 67.1 2.5 61 12.7
2004-06-11 12:09:04 51°9.392 2°37.264 67.5 2.5 62 12.7
2004-06-11 12:10:06 51°9.412 2°37.324 67.8 2.5 63 12.7
2004-06-11 12:11:06 51°9.43 2°37.384 69.3 2.5 66 12.6
2004-06-11 12:12:06 51°9.447 2°37.445 69.2 2.5 66 12.5
2004-06-11 12:13:06 51°9.464 2°37.516 72.8 3.1 73 12.5
2004-06-11 12:14:06 51°9.475 2°37.596 82.6 3.2 83 12.3
2004-06-11 12:15:05 51°9.472 2°37.679 98.3 3.2 102 11.8
2004-06-11 12:16:06 51°9.449 2°37.758 117 3.3 124 11.5
2004-06-11 12:17:06 51°9.41 2°37.82 136 3 144 11
2004-06-11 12:18:06 51°9.37 2°37.848 153.1 2.4 164 10.7
2004-06-11 12:19:06 51°9.323 2°37.869 149.4 3.9 152 10.4
2004-06-11 12:20:06 51°9.297 2°37.971 92.9 3.7 94 10.1
2004-06-11 12:21:06 51°9.297 2°38.053 89.3 3 91 10.1
2004-06-11 12:22:06 51°9.295 2°38.129 88.8 2.8 89 9.9
2004-06-11 12:23:06 51°9.299 2°38.2 83.3 2.7 83 9.8
2004-06-11 12:24:06 51°9.304 2°38.268 81.2 2.6 81 9.7
2004-06-11 12:25:04 51°9.31 2°38.332 80.6 2.5 80 9.6
2004-06-11 12:26:06 51°9.316 2°38.398 80 2.4 81 9.6
2004-06-11 12:27:06 51°9.327 2°38.459 74 2.4 72 9.5
2004-06-11 12:28:06 51°9.34 2°38.518 71.6 2.4 68 9.5
2004-06-11 12:29:06 51°9.355 2°38.575 70.9 2.4 69 9.5
2004-06-11 12:30:06 51°9.37 2°38.634 71.9 2.4 69 9.5
2004-06-11 12:31:04 51°9.383 2°38.691 73.4 2.4 71 9.4
2004-06-11 12:32:06 51°9.397 2°38.753 73.9 2.5 71 9.4
2004-06-11 12:33:06 51°9.41 2°38.816 74.7 2.6 70 9.4
2004-06-11 12:34:05 51°9.423 2°38.879 76.1 2.5 73 9.3
2004-06-11 12:35:06 51°9.435 2°38.943 76.8 2.5 75 9.3
2004-06-11 12:36:06 51°9.447 2°39.006 75.3 2.5 73 9.2
2004-06-11 12:37:05 51°9.461 2°39.067 71.8 2.5 67 9.2
2004-06-11 12:38:06 51°9.478 2°39.128 68.9 2.4 64 9.2
2004-06-11 12:39:06 51°9.497 2°39.186 67.9 2.5 64 9.3
2004-06-11 12:40:06 51°9.515 2°39.244 67.1 2.5 62 9.2
2004-06-11 12:41:06 51°9.535 2°39.302 67.5 2.5 62 9.2
2004-06-11 12:42:06 51°9.553 2°39.362 71.7 2.5 67 9.3
2004-06-11 12:43:06 51°9.567 2°39.423 75.4 2.5 73 9.2
2004-06-11 12:44:06 51°9.578 2°39.488 78.3 2.5 75 9.2
2004-06-11 12:45:06 51°9.588 2°39.553 78.6 2.5 76 9.2
2004-06-11 12:46:06 51°9.598 2°39.618 76.8 2.5 74 9.1
2004-06-11 12:47:06 51°9.612 2°39.68 72.6 2.5 68 9
2004-06-11 12:48:06 51°9.628 2°39.741 70.3 2.5 65 9
2004-06-11 12:49:05 51°9.646 2°39.799 67.8 2.5 63 9
2004-06-11 12:50:06 51°9.667 2°39.858 66.2 2.5 61 9
2004-06-11 12:51:04 51°9.686 2°39.914 65.6 2.6 60 9
2004-06-11 12:52:06 51°9.708 2°39.977 66 2.7 62 9
2004-06-11 12:53:06 51°9.728 2°40.04 68.7 2.7 66 9
2004-06-11 12:54:06 51°9.744 2°40.109 74.7 3 73 9
2004-06-11 12:55:06 51°9.753 2°40.188 86.1 3 87 8.9
2004-06-11 12:56:06 51°9.744 2°40.268 105.2 3.1 111 8.8
2004-06-11 12:57:06 51°9.714 2°40.335 127.8 3.3 135 8.6
2004-06-11 12:58:04 51°9.675 2°40.377 145.3 2.5 156 8.3
2004-06-11 12:59:06 51°9.633 2°40.394 162.5 3.2 171 8.2
2004-06-11 13:00:06 51°9.552 2°40.336 224.7 7.7 227 7.9
2004-06-11 13:01:06 51°9.496 2°40.095 256.6 10.9 253 5.7
2004-06-11 13:02:06 51°9.433 2°39.809 253.8 11.7 251 7.8
2004-06-11 13:03:04 51°9.372 2°39.524 254.3 11.8 251 7.8
2004-06-11 13:04:04 51°9.326 2°39.283 258.3 7.7 256 8.2
2004-06-11 13:05:03 51°9.324 2°39.126 291.9 4.4 283 8.5
2004-06-11 13:06:06 51°9.348 2°39.045 321.6 2.5 307 8.7
2004-06-11 13:07:06 51°9.372 2°39.007 336.4 1.8 316 8.8
2004-06-11 13:08:06 51°9.391 2°38.977 335 1.4 312 8.9
2004-06-11 13:09:06 51°9.404 2°38.954 336.9 1 312 9
2004-06-11 13:10:06 51°9.414 2°38.937 339.9 0.8 320 9.1
2004-06-11 13:11:06 51°9.422 2°38.922 341.3 0.6 313 9.1
2004-06-11 13:12:05 51°9.429 2°38.911 343.9 0.5 308 9.1
2004-06-11 13:13:06 51°9.435 2°38.899 346 0.7 314 9.3
2004-06-11 13:14:06 51°9.449 2°38.88 342.8 1.3 318 9.3
2004-06-11 13:15:06 51°9.466 2°38.854 334.7 1.5 311 9.5
2004-06-11 13:16:04 51°9.482 2°38.822 330.1 1.6 310 9.6
2004-06-11 13:17:06 51°9.501 2°38.789 329.7 1.6 312 9.8
2004-06-11 13:18:06 51°9.518 2°38.753 325.3 1.7 305 10
2004-06-11 13:19:06 51°9.534 2°38.716 323 1.7 304 10.1
2004-06-11 13:20:06 51°9.55 2°38.679 321.5 1.7 303 10.3
2004-06-11 13:21:03 51°9.565 2°38.643 317.2 1.7 298 10.3
2004-06-11 13:22:05 51°9.579 2°38.599 313.1 1.8 296 10.5
2004-06-11 13:23:06 51°9.6 2°38.542 322.3 3.7 308 10.6
2004-06-11 13:24:05 51°9.678 2°38.512 26.1 7.1 21 10.9
2004-06-11 13:25:05 51°9.766 2°38.729 67.9 12 62 11.2
2004-06-11 13:26:05 51°9.853 2°39.025 73.4 12.6 67 11
2004-06-11 13:27:05 51°9.934 2°39.331 74.9 12.6 70 10.9
2004-06-11 13:28:05 51°10.007 2°39.644 74.3 12.7 68 10.6
2004-06-11 13:29:03 51°10.077 2°39.95 75.8 12.8 70 10.6
2004-06-11 13:30:05 51°10.153 2°40.279 77 12.9 73 10.6
2004-06-11 13:31:05 51°10.235 2°40.591 69.5 12.7 64 10.6
2004-06-11 13:32:05 51°10.326 2°40.895 70.7 12.8 65 10.7
2004-06-11 13:33:05 51°10.41 2°41.201 70.9 12.6 65 10.7
2004-06-11 13:34:05 51°10.492 2°41.506 72 12.5 66 10.8
2004-06-11 13:35:05 51°10.577 2°41.811 71.7 12.7 66 10.9
2004-06-11 13:36:05 51°10.659 2°42.122 72.5 12.6 67 10.9
2004-06-11 13:37:03 51°10.741 2°42.416 68.8 12.6 63 11
2004-06-11 13:38:05 51°10.84 2°42.725 70.9 12.8 66 11.2
2004-06-11 13:39:05 51°10.926 2°43.035 69.6 12.9 65 11.3
2004-06-11 13:40:05 51°11.013 2°43.346 72.5 12.7 68 11.4
2004-06-11 13:41:05 51°11.086 2°43.66 74.9 12.4 71 11.5
2004-06-11 13:42:05 51°11.161 2°43.971 73.6 12.7 70 11.5
2004-06-11 13:43:05 51°11.233 2°44.284 74.7 12.6 70 11.5
2004-06-11 13:44:05 51°11.306 2°44.6 74 12.7 69 11.6
2004-06-11 13:45:05 51°11.381 2°44.911 75.1 12.3 71 11.6
2004-06-11 13:46:05 51°11.451 2°45.217 73.3 12.3 69 11.6
2004-06-11 13:47:05 51°11.533 2°45.515 70.2 12.3 65 11.7
2004-06-11 13:48:05 51°11.624 2°45.814 66.6 12.6 62 11.8
2004-06-11 13:49:05 51°11.711 2°46.115 70.6 12.6 66 11.9
2004-06-11 13:50:05 51°11.793 2°46.418 70.7 12.6 66 12
2004-06-11 13:51:05 51°11.873 2°46.721 71.5 12.3 67 11.9
2004-06-11 13:52:05 51°11.953 2°47.024 70.7 12.4 68 11.8
2004-06-11 13:53:05 51°12.035 2°47.328 71.6 12.5 68 11.7
2004-06-11 13:54:06 51°12.119 2°47.636 71.6 12.4 69 11.6
2004-06-11 13:55:05 51°12.197 2°47.936 72 12.4 69 11.5
2004-06-11 13:56:05 51°12.283 2°48.233 67.8 12.5 63 11.2
2004-06-11 13:57:05 51°12.383 2°48.522 64 12.5 59 11.1
2004-06-11 13:58:05 51°12.482 2°48.816 64.5 12.8 62 11.1
2004-06-11 13:59:05 51°12.583 2°49.112 63.7 12.5 60 11
2004-06-11 14:00:02 51°12.678 2°49.389 63.1 12.7 59 10.8
2004-06-11 14:01:05 51°12.786 2°49.694 67.4 12.6 62 10.8
2004-06-11 14:02:05 51°12.883 2°49.985 67 12.5 62 10.7
2004-06-11 14:03:05 51°12.981 2°50.279 64.6 12.7 58 10.6
2004-06-11 14:04:05 51°13.08 2°50.576 66 12.8 61 10.5
2004-06-11 14:05:04 51°13.177 2°50.871 64.4 12.8 60 10.3
2004-06-11 14:06:05 51°13.28 2°51.172 66.7 12.5 63 10.1
2004-06-11 14:07:05 51°13.378 2°51.462 65 12.3 61 9.9
2004-06-11 14:08:05 51°13.476 2°51.758 65.3 12.6 63 9.9
2004-06-11 14:09:05 51°13.564 2°52.061 65.3 12.6 62 9.7
2004-06-11 14:10:05 51°13.664 2°52.357 69 12.6 68 9.7
2004-06-11 14:11:05 51°13.76 2°52.654 63.9 12.8 65 9.4
2004-06-11 14:12:04 51°13.853 2°52.948 66.9 12.7 66 9.2
2004-06-11 14:13:03 51°13.949 2°53.236 66.9 12.5 65 8.9
2004-06-11 14:14:05 51°14.049 2°53.541 62.3 12.7 58 8.5
2004-06-11 14:15:05 51°14.146 2°53.837 63.1 12.6 60 8.3
2004-06-11 14:16:05 51°14.257 2°54.117 62.5 12.4 58 8.4
2004-06-11 14:17:05 51°14.346 2°54.408 69.6 12.3 67 8.8
2004-06-11 14:18:05 51°14.421 2°54.707 77 12.3 75 9.9
2004-06-11 14:19:05 51°14.379 2°55.022 114.5 12.4 112 10.3
2004-06-11 14:20:05 51°14.255 2°55.283 135.5 12.4 133 10.6
2004-06-11 14:21:05 51°14.117 2°55.427 157.7 8.8 154 11
2004-06-11 14:22:05 51°13.991 2°55.516 159.1 8.2 156 10.9
2004-06-11 14:23:05 51°13.869 2°55.605 159.4 7.9 156 9.2
2004-06-11 14:24:05 51°13.753 2°55.701 147.3 7.9 143 9.1
2004-06-11 14:25:03 51°13.683 2°55.826 125.2 5.6 122 9
2004-06-11 14:26:05 51°13.639 2°55.952 120.8 4.8 117 9.5
2004-06-11 14:27:08 51°13.611 2°56.044 121.2 3.4 116 8.7
2004-06-11 14:28:09 51°13.597 2°56.088 123.3 0.1 172 -999
2004-06-11 14:29:09 51°13.593 2°56.096 123.4 0.2 100 -999
2004-06-11 14:30:09 51°13.595 2°56.101 118.9 0.2 40 -999
2004-06-11 14:31:09 51°13.596 2°56.097 128.5 0.2 72 -999